createdAt,value
2017-12-01T00:01:50.260Z,7.87
2017-12-01T00:04:18.607Z,7.90
2017-12-01T00:06:46.951Z,7.50
2017-12-01T00:09:15.294Z,7.12
2017-12-01T00:11:43.675Z,8.30
2017-12-01T00:14:12.023Z,6.40
2017-12-01T00:16:40.363Z,5.93
2017-12-01T00:19:08.708Z,6.78
2017-12-01T00:21:37.046Z,6.43
2017-12-01T00:24:05.415Z,7.10
2017-12-01T00:26:33.750Z,7.00
2017-12-01T00:29:02.093Z,7.35
2017-12-01T00:31:30.444Z,7.32
2017-12-01T00:33:58.787Z,8.30
2017-12-01T00:36:27.151Z,7.60
2017-12-01T00:38:55.495Z,9.05
2017-12-01T00:41:23.827Z,8.57
2017-12-01T00:43:52.181Z,8.95
2017-12-01T00:46:20.515Z,8.52
2017-12-01T00:48:48.884Z,8.20
2017-12-01T00:51:17.229Z,7.85
2017-12-01T00:53:45.577Z,8.73
2017-12-01T00:56:13.925Z,8.70
2017-12-01T00:58:42.262Z,7.82
2017-12-01T01:01:10.644Z,9.30
2017-12-01T01:03:38.988Z,8.25
2017-12-01T01:06:07.323Z,8.82
2017-12-01T01:08:35.662Z,8.77
2017-12-01T01:11:04.135Z,8.98
2017-12-01T01:13:32.742Z,8.93
2017-12-01T01:16:01.527Z,8.63
2017-12-01T01:18:30.574Z,8.27
2017-12-01T01:20:59.419Z,9.02
2017-12-01T01:23:28.022Z,9.00
2017-12-01T01:25:56.370Z,9.18
2017-12-01T01:28:24.717Z,8.68
2017-12-01T01:30:53.056Z,9.10
2017-12-01T01:33:21.398Z,9.65
2017-12-01T01:35:49.766Z,8.43
2017-12-01T01:38:18.103Z,9.15
2017-12-01T01:40:46.448Z,8.35
2017-12-01T01:43:14.808Z,7.68
2017-12-01T01:45:43.162Z,8.77
2017-12-01T01:48:11.532Z,8.73
2017-12-01T01:50:39.879Z,8.55
2017-12-01T01:53:08.225Z,8.70
2017-12-01T01:55:36.580Z,8.57
2017-12-01T01:58:04.916Z,9.18
2017-12-01T02:00:33.277Z,8.40
2017-12-01T02:03:01.614Z,8.20
2017-12-01T02:05:29.991Z,8.55
2017-12-01T02:07:58.382Z,8.32
2017-12-01T02:10:26.732Z,8.45
2017-12-01T02:12:55.102Z,9.55
2017-12-01T02:15:23.434Z,9.45
2017-12-01T02:17:51.778Z,8.48
2017-12-01T02:20:20.122Z,8.10
2017-12-01T02:22:48.466Z,7.87
2017-12-01T02:25:16.851Z,8.65
2017-12-01T02:27:45.199Z,7.82
2017-12-01T02:30:13.580Z,8.50
2017-12-01T02:32:41.919Z,7.82
2017-12-01T02:35:10.262Z,8.60
2017-12-01T02:37:38.636Z,8.10
2017-12-01T02:40:06.972Z,9.48
2017-12-01T02:42:35.319Z,10.00
2017-12-01T02:45:03.658Z,8.73
2017-12-01T02:47:32.007Z,9.52
2017-12-01T02:50:00.396Z,13.25
2017-12-01T02:52:28.742Z,14.00
2017-12-01T02:54:57.099Z,14.13
2017-12-01T02:57:25.455Z,14.07
2017-12-01T02:59:53.839Z,14.60
2017-12-01T03:02:22.191Z,14.80
2017-12-01T03:04:50.548Z,15.05
2017-12-01T03:07:18.888Z,15.18
2017-12-01T03:09:47.234Z,17.75
2017-12-01T03:12:15.602Z,16.55
2017-12-01T03:14:43.947Z,17.17
2017-12-01T03:17:12.298Z,16.12
2017-12-01T03:19:40.642Z,16.02
2017-12-01T03:22:08.991Z,18.20
2017-12-01T03:24:37.374Z,17.55
2017-12-01T03:27:05.760Z,18.73
2017-12-01T03:29:34.101Z,17.95
2017-12-01T03:32:02.451Z,17.02
2017-12-01T03:34:30.825Z,18.05
2017-12-01T03:36:59.209Z,18.35
2017-12-01T03:39:27.591Z,18.27
2017-12-01T03:41:55.941Z,18.27
2017-12-01T03:44:24.299Z,19.00
2017-12-01T03:46:52.636Z,17.20
2017-12-01T03:49:21.371Z,19.10
2017-12-01T03:51:49.706Z,17.62
2017-12-01T03:54:18.060Z,17.45
2017-12-01T03:56:46.414Z,18.25
2017-12-01T03:59:14.763Z,18.23
2017-12-01T04:01:43.114Z,19.20
2017-12-01T04:04:11.459Z,18.02
2017-12-01T04:06:39.806Z,17.15
2017-12-01T04:09:08.167Z,18.98
2017-12-01T04:11:36.551Z,19.27
2017-12-01T04:14:04.902Z,18.17
2017-12-01T04:16:33.250Z,20.20
2017-12-01T04:19:01.610Z,19.08
2017-12-01T04:21:29.981Z,16.92
2017-12-01T04:23:58.327Z,19.48
2017-12-01T04:26:26.675Z,17.48
2017-12-01T04:28:55.027Z,17.67
2017-12-01T04:31:23.377Z,18.75
2017-12-01T04:33:51.750Z,18.70
2017-12-01T04:36:20.095Z,19.42
2017-12-01T04:38:48.443Z,19.30
2017-12-01T04:41:16.787Z,21.65
2017-12-01T04:43:45.149Z,20.62
2017-12-01T04:46:13.521Z,22.77
2017-12-01T04:48:41.863Z,24.33
2017-12-01T04:51:10.220Z,21.35
2017-12-01T04:53:38.561Z,21.67
2017-12-01T04:56:06.918Z,18.80
2017-12-01T04:58:35.303Z,16.33
2017-12-01T05:01:03.650Z,18.73
2017-12-01T05:03:32.000Z,17.85
2017-12-01T05:06:00.351Z,15.82
2017-12-01T05:08:28.691Z,18.98
2017-12-01T05:10:57.085Z,13.55
2017-12-01T05:13:25.467Z,16.92
2017-12-01T05:15:53.815Z,17.08
2017-12-01T05:18:22.197Z,16.20
2017-12-01T05:20:50.535Z,18.30
2017-12-01T05:23:18.920Z,17.55
2017-12-01T05:25:47.258Z,18.45
2017-12-01T05:28:15.614Z,19.52
2017-12-01T05:30:43.946Z,19.77
2017-12-01T05:33:12.293Z,18.33
2017-12-01T05:35:40.771Z,14.95
2017-12-01T05:38:09.139Z,15.68
2017-12-01T05:40:37.486Z,16.80
2017-12-01T05:43:06.054Z,14.23
2017-12-01T05:45:34.406Z,14.60
2017-12-01T05:48:02.810Z,15.52
2017-12-01T05:50:31.155Z,14.05
2017-12-01T05:52:59.507Z,13.07
2017-12-01T05:55:27.856Z,13.85
2017-12-01T05:57:56.192Z,14.25
2017-12-01T06:00:24.578Z,12.63
2017-12-01T06:02:53.910Z,11.10
2017-12-01T06:05:22.279Z,10.25
2017-12-01T06:07:50.627Z,10.43
2017-12-01T06:10:18.976Z,9.75
2017-12-01T06:12:47.350Z,11.65
2017-12-01T06:15:15.699Z,17.15
2017-12-01T06:17:44.145Z,15.07
2017-12-01T06:20:12.554Z,13.62
2017-12-01T06:22:40.909Z,14.02
2017-12-01T06:25:09.474Z,15.57
2017-12-01T06:27:37.877Z,16.33
2017-12-01T06:30:06.233Z,16.37
2017-12-01T06:32:36.675Z,16.65
2017-12-01T06:35:05.051Z,16.90
2017-12-01T06:37:33.823Z,15.95
2017-12-01T06:40:02.325Z,14.40
2017-12-01T06:42:30.682Z,15.45
2017-12-01T06:44:59.031Z,11.95
2017-12-01T06:47:27.391Z,12.25
2017-12-01T06:50:11.877Z,11.00
2017-12-01T06:52:40.936Z,13.75
2017-12-01T06:55:09.512Z,14.35
2017-12-01T06:57:37.860Z,12.45
2017-12-01T07:00:06.194Z,11.48
2017-12-01T07:02:34.601Z,13.32
2017-12-01T07:05:02.956Z,12.80
2017-12-01T07:07:31.376Z,13.48
2017-12-01T07:09:59.723Z,14.02
2017-12-01T07:12:28.071Z,17.30
2017-12-01T07:17:30.821Z,18.10
2017-12-01T07:19:59.194Z,18.58
2017-12-01T07:22:27.542Z,18.75
2017-12-01T07:24:55.899Z,18.15
2017-12-01T07:27:24.255Z,20.90
2017-12-01T07:29:52.597Z,21.65
2017-12-01T07:32:20.955Z,21.65
2017-12-01T07:34:49.304Z,20.48
2017-12-01T07:37:17.696Z,20.77
2017-12-01T07:39:46.036Z,21.92
2017-12-01T07:42:14.385Z,23.27
2017-12-01T07:45:02.563Z,22.02
2017-12-01T07:47:30.911Z,21.37
2017-12-01T07:49:59.263Z,20.88
2017-12-01T07:52:27.609Z,19.10
2017-12-01T07:54:56.011Z,18.50
2017-12-01T07:57:24.359Z,21.98
2017-12-01T07:59:52.710Z,19.75
2017-12-01T08:02:21.056Z,19.65
2017-12-01T08:04:49.441Z,19.33
2017-12-01T08:07:17.815Z,19.05
2017-12-01T08:09:46.183Z,17.87
2017-12-01T08:12:14.551Z,18.37
2017-12-01T08:14:42.893Z,17.00
2017-12-01T08:17:22.918Z,17.60
2017-12-01T08:19:51.287Z,17.23
2017-12-01T08:22:31.370Z,17.02
2017-12-01T08:25:11.410Z,17.80
2017-12-01T08:27:39.994Z,18.80
2017-12-01T08:30:08.382Z,16.33
2017-12-01T08:32:36.722Z,19.65
2017-12-01T08:35:05.073Z,18.35
2017-12-01T08:37:33.421Z,18.80
2017-12-01T08:40:01.771Z,15.90
2017-12-01T08:42:30.499Z,16.85
2017-12-01T08:44:58.845Z,12.80
2017-12-01T08:47:27.207Z,14.38
2017-12-01T08:49:55.556Z,13.45
2017-12-01T08:52:23.906Z,15.50
2017-12-01T08:54:52.292Z,18.52
2017-12-01T08:57:20.651Z,19.17
2017-12-01T08:59:49.003Z,19.70
2017-12-01T09:02:17.354Z,18.70
2017-12-01T09:04:45.698Z,17.80
2017-12-01T09:07:14.068Z,16.77
2017-12-01T09:09:42.426Z,18.30
2017-12-01T09:12:10.789Z,17.50
2017-12-01T09:14:39.751Z,15.85
2017-12-01T09:17:08.094Z,13.85
2017-12-01T09:19:36.468Z,13.35
2017-12-01T09:22:04.823Z,12.98
2017-12-01T09:24:33.171Z,12.80
2017-12-01T09:27:01.527Z,14.05
2017-12-01T09:29:29.878Z,12.55
2017-12-01T09:31:58.366Z,14.15
2017-12-01T09:34:26.731Z,16.90
2017-12-01T09:36:55.070Z,14.82
2017-12-01T09:39:23.414Z,14.80
2017-12-01T09:41:51.767Z,15.90
2017-12-01T09:44:20.142Z,15.90
2017-12-01T09:46:48.507Z,15.25
2017-12-01T09:49:16.854Z,15.77
2017-12-01T09:51:45.204Z,16.23
2017-12-01T09:54:13.556Z,17.02
2017-12-01T09:56:41.935Z,15.88
2017-12-01T09:59:10.319Z,15.80
2017-12-01T10:01:38.670Z,14.40
2017-12-01T10:04:07.015Z,10.85
2017-12-01T10:06:35.366Z,14.68
2017-12-01T10:09:03.759Z,13.65
2017-12-01T10:11:32.138Z,12.13
2017-12-01T10:14:00.478Z,12.27
2017-12-01T10:16:28.826Z,13.07
2017-12-01T10:18:57.209Z,11.07
2017-12-01T10:21:25.589Z,13.52
2017-12-01T10:23:53.939Z,14.43
2017-12-01T10:26:22.289Z,13.13
2017-12-01T10:28:50.636Z,14.05
2017-12-01T10:31:18.985Z,14.73
2017-12-01T10:33:47.362Z,13.35
2017-12-01T10:36:15.711Z,12.57
2017-12-01T10:38:44.927Z,13.25
2017-12-01T10:41:13.282Z,14.13
2017-12-01T10:43:41.634Z,13.15
2017-12-01T10:46:10.012Z,14.20
2017-12-01T10:48:38.354Z,14.48
2017-12-01T10:51:06.821Z,15.90
2017-12-01T10:53:35.173Z,16.27
2017-12-01T10:56:03.548Z,16.40
2017-12-01T10:58:31.925Z,17.05
2017-12-01T11:01:00.274Z,16.23
2017-12-01T11:03:28.614Z,17.55
2017-12-01T11:05:56.962Z,18.87
2017-12-01T11:08:25.323Z,17.40
2017-12-01T11:10:53.702Z,15.90
2017-12-01T11:13:22.068Z,15.98
2017-12-01T11:15:50.414Z,17.70
2017-12-01T11:18:18.754Z,15.05
2017-12-01T11:20:47.104Z,14.18
2017-12-01T11:23:15.659Z,13.25
2017-12-01T11:25:44.029Z,15.02
2017-12-01T11:28:12.375Z,15.55
2017-12-01T11:30:40.730Z,19.15
2017-12-01T11:33:09.076Z,15.55
2017-12-01T11:35:37.459Z,18.33
2017-12-01T11:38:05.824Z,14.35
2017-12-01T11:40:34.171Z,15.05
2017-12-01T11:43:02.584Z,15.18
2017-12-01T11:45:30.963Z,14.63
2017-12-01T11:47:59.307Z,13.43
2017-12-01T11:50:27.655Z,13.52
2017-12-01T11:52:56.007Z,14.00
2017-12-01T11:55:24.355Z,12.95
2017-12-01T11:57:52.730Z,12.85
2017-12-01T12:00:21.082Z,12.45
2017-12-01T12:02:49.431Z,14.98
2017-12-01T12:05:17.791Z,14.68
2017-12-01T12:07:46.146Z,16.45
2017-12-01T12:10:14.543Z,13.60
2017-12-01T12:12:42.890Z,12.18
2017-12-01T12:15:11.240Z,9.55
2017-12-01T12:17:39.598Z,10.93
2017-12-01T12:20:07.938Z,12.65
2017-12-01T12:22:36.339Z,11.88
2017-12-01T12:25:04.688Z,10.82
2017-12-01T12:27:33.035Z,11.70
2017-12-01T12:30:01.387Z,10.50
2017-12-01T12:32:29.740Z,11.43
2017-12-01T12:34:58.599Z,11.20
2017-12-01T12:37:27.059Z,10.70
2017-12-01T12:39:55.414Z,10.68
2017-12-01T12:42:23.771Z,10.57
2017-12-01T12:44:52.195Z,9.57
2017-12-01T12:47:20.613Z,8.18
2017-12-01T12:49:48.948Z,6.87
2017-12-01T12:52:17.284Z,8.50
2017-12-01T12:54:45.627Z,7.87
2017-12-01T12:57:13.972Z,7.87
2017-12-01T12:59:42.360Z,8.70
2017-12-01T13:02:10.703Z,7.68
2017-12-01T13:04:39.143Z,8.35
2017-12-01T13:07:07.513Z,7.70
2017-12-01T13:09:35.862Z,7.72
2017-12-01T13:12:04.240Z,7.62
2017-12-01T13:14:32.594Z,6.57
2017-12-01T13:17:00.935Z,6.22
2017-12-01T13:19:29.282Z,8.13
2017-12-01T13:21:57.618Z,7.40
2017-12-01T13:24:26.004Z,6.55
2017-12-01T13:26:54.350Z,5.60
2017-12-01T13:29:22.699Z,5.10
2017-12-01T13:31:51.054Z,5.03
2017-12-01T13:34:19.446Z,4.82
2017-12-01T13:36:47.841Z,6.80
2017-12-01T13:39:17.133Z,6.82
2017-12-01T13:41:45.483Z,8.23
2017-12-01T13:44:13.834Z,7.85
2017-12-01T13:46:42.183Z,9.20
2017-12-01T13:49:11.168Z,8.57
2017-12-01T13:51:39.507Z,9.25
2017-12-01T13:54:07.858Z,9.80
2017-12-01T13:56:36.210Z,10.77
2017-12-01T13:59:04.559Z,10.77
2017-12-01T14:01:33.085Z,9.15
2017-12-01T14:04:01.435Z,8.32
2017-12-01T14:06:29.796Z,7.55
2017-12-01T14:08:58.129Z,9.38
2017-12-01T14:11:26.487Z,9.77
2017-12-01T14:13:54.904Z,9.07
2017-12-01T14:16:23.248Z,10.65
2017-12-01T14:18:51.598Z,9.32
2017-12-01T14:21:19.947Z,10.00
2017-12-01T14:23:48.301Z,10.85
2017-12-01T14:26:17.673Z,13.80
2017-12-01T14:28:46.024Z,10.70
2017-12-01T14:31:14.374Z,10.50
2017-12-01T14:33:42.739Z,10.82
2017-12-01T14:36:11.088Z,9.70
2017-12-01T14:38:39.654Z,10.48
2017-12-01T14:41:08.008Z,11.27
2017-12-01T14:43:36.358Z,12.27
2017-12-01T14:46:04.703Z,13.05
2017-12-01T14:48:33.115Z,12.43
2017-12-01T14:51:01.500Z,13.07
2017-12-01T14:53:29.843Z,11.60
2017-12-01T14:55:58.201Z,13.10
2017-12-01T14:58:26.556Z,11.32
2017-12-01T15:00:54.890Z,11.65
2017-12-01T15:03:23.241Z,13.10
2017-12-01T15:05:51.583Z,13.95
2017-12-01T15:08:20.075Z,12.95
2017-12-01T15:10:48.468Z,12.95
2017-12-01T15:13:16.965Z,12.95
2017-12-01T15:15:45.498Z,12.48
2017-12-01T15:18:13.867Z,11.43
2017-12-01T15:20:43.167Z,11.95
2017-12-01T15:23:11.529Z,11.15
2017-12-01T15:25:39.874Z,10.13
2017-12-01T15:28:08.258Z,10.20
2017-12-01T15:30:36.921Z,11.52
2017-12-01T15:33:05.303Z,12.40
2017-12-01T15:35:35.660Z,13.38
2017-12-01T15:38:04.179Z,10.63
2017-12-01T15:40:32.661Z,12.80
2017-12-01T15:43:01.032Z,14.10
2017-12-01T15:45:29.511Z,14.57
2017-12-01T15:47:58.506Z,10.18
2017-12-01T15:50:26.868Z,10.75
2017-12-01T15:52:55.214Z,11.45
2017-12-01T15:55:23.573Z,12.43
2017-12-01T15:57:51.968Z,11.80
2017-12-01T16:00:20.322Z,11.02
2017-12-01T16:02:48.690Z,12.55
2017-12-01T16:05:17.046Z,13.05
2017-12-01T16:07:45.407Z,11.20
2017-12-01T16:10:13.788Z,13.68
2017-12-01T16:12:42.136Z,14.40
2017-12-01T16:15:10.484Z,14.13
2017-12-01T16:17:38.833Z,16.70
2017-12-01T16:20:07.183Z,16.92
2017-12-01T16:22:35.655Z,15.88
2017-12-01T16:25:04.013Z,15.85
2017-12-01T16:27:32.351Z,14.30
2017-12-01T16:30:00.696Z,17.25
2017-12-01T16:32:29.047Z,17.20
2017-12-01T16:34:57.423Z,17.60
2017-12-01T16:37:25.779Z,15.75
2017-12-01T16:39:54.128Z,16.52
2017-12-01T16:42:22.497Z,15.88
2017-12-01T16:44:50.835Z,16.77
2017-12-01T16:47:19.215Z,15.57
2017-12-01T16:49:47.558Z,15.40
2017-12-01T16:52:15.909Z,15.65
2017-12-01T16:54:44.250Z,15.85
2017-12-01T16:57:12.599Z,15.32
2017-12-01T16:59:40.986Z,16.65
2017-12-01T17:02:09.345Z,16.92
2017-12-01T17:04:37.687Z,18.08
2017-12-01T17:07:06.035Z,17.15
2017-12-01T17:09:34.388Z,17.30
2017-12-01T17:12:03.491Z,16.60
2017-12-01T17:14:31.855Z,16.70
2017-12-01T17:17:00.249Z,17.00
2017-12-01T17:19:28.594Z,17.27
2017-12-01T17:21:56.947Z,18.90
2017-12-01T17:24:25.323Z,19.02
2017-12-01T17:26:54.635Z,16.33
2017-12-01T17:29:22.985Z,16.35
2017-12-01T17:31:51.338Z,16.98
2017-12-01T17:34:19.689Z,14.68
2017-12-01T17:36:48.087Z,14.15
2017-12-01T17:39:16.681Z,15.50
2017-12-01T17:41:45.032Z,14.45
2017-12-01T17:44:13.406Z,15.05
2017-12-01T17:46:41.761Z,14.50
2017-12-01T17:49:10.133Z,16.37
2017-12-01T17:51:38.475Z,17.98
2017-12-01T17:54:06.816Z,14.63
2017-12-01T17:56:35.158Z,15.23
2017-12-01T17:59:03.516Z,18.08
2017-12-01T18:01:31.904Z,17.80
2017-12-01T18:04:00.392Z,16.50
2017-12-01T18:06:28.797Z,15.60
2017-12-01T18:08:57.141Z,13.93
2017-12-01T18:11:25.512Z,13.32
2017-12-01T18:13:53.919Z,13.77
2017-12-01T18:16:22.278Z,14.43
2017-12-01T18:18:50.629Z,15.80
2017-12-01T18:21:18.978Z,15.13
2017-12-01T18:23:47.322Z,14.52
2017-12-01T18:26:15.699Z,17.15
2017-12-01T18:28:44.074Z,16.85
2017-12-01T18:31:12.415Z,15.93
2017-12-01T18:33:40.767Z,15.63
2017-12-01T18:36:09.111Z,16.12
2017-12-01T18:38:37.675Z,15.65
2017-12-01T18:41:06.015Z,16.52
2017-12-01T18:43:34.411Z,16.23
2017-12-01T18:46:02.759Z,17.77
2017-12-01T18:48:31.102Z,16.02
2017-12-01T18:50:59.504Z,16.92
2017-12-01T18:53:27.842Z,15.55
2017-12-01T18:55:56.193Z,14.98
2017-12-01T18:58:24.535Z,14.02
2017-12-01T19:00:52.892Z,14.45
2017-12-01T19:03:21.436Z,16.87
2017-12-01T19:05:49.779Z,16.37
2017-12-01T19:08:18.138Z,15.05
2017-12-01T19:10:46.482Z,16.15
2017-12-01T19:13:14.828Z,15.52
2017-12-01T19:15:43.243Z,16.58
2017-12-01T19:18:11.599Z,15.68
2017-12-01T19:20:39.947Z,14.63
2017-12-01T19:23:08.293Z,13.18
2017-12-01T19:25:36.634Z,12.25
2017-12-01T19:28:05.006Z,14.35
2017-12-01T19:33:07.946Z,15.95
2017-12-01T19:35:36.297Z,17.35
2017-12-01T19:38:04.645Z,18.35
2017-12-01T19:40:32.990Z,17.80
2017-12-01T19:43:01.358Z,18.02
2017-12-01T19:45:29.843Z,18.00
2017-12-01T19:47:58.182Z,16.25
2017-12-01T19:50:26.532Z,17.12
2017-12-01T19:52:54.879Z,17.35
2017-12-01T19:55:23.260Z,19.33
2017-12-01T19:57:51.630Z,18.05
2017-12-01T20:00:19.983Z,18.65
2017-12-01T20:02:48.534Z,16.87
2017-12-01T20:05:17.008Z,17.40
2017-12-01T20:07:45.510Z,17.87
2017-12-01T20:10:14.043Z,17.90
2017-12-01T20:12:42.411Z,16.92
2017-12-01T20:15:10.757Z,16.48
2017-12-01T20:17:39.106Z,15.77
2017-12-01T20:20:08.115Z,15.73
2017-12-01T20:22:36.499Z,16.90
2017-12-01T20:25:04.846Z,16.15
2017-12-01T20:27:33.206Z,16.05
2017-12-01T20:30:01.549Z,15.32
2017-12-01T20:32:29.909Z,15.15
2017-12-01T20:34:58.455Z,14.35
2017-12-01T20:37:26.804Z,18.62
2017-12-01T20:39:55.163Z,16.85
2017-12-01T20:42:23.502Z,17.27
2017-12-01T20:44:51.855Z,19.75
2017-12-01T20:47:20.194Z,17.20
2017-12-01T20:49:48.663Z,19.95
2017-12-01T20:52:17.016Z,17.92
2017-12-01T20:54:45.360Z,22.95
2017-12-01T20:57:13.700Z,27.85
2017-12-01T20:59:42.055Z,27.60
2017-12-01T21:02:10.415Z,24.75
2017-12-01T21:04:38.760Z,22.58
2017-12-01T21:07:07.112Z,23.45
2017-12-01T21:09:35.458Z,24.30
2017-12-01T21:12:03.808Z,24.90
2017-12-01T21:14:32.166Z,26.15
2017-12-01T21:17:00.515Z,25.77
2017-12-01T21:19:28.918Z,28.05
2017-12-01T21:21:57.325Z,24.92
2017-12-01T21:24:25.663Z,28.40
2017-12-01T21:26:54.007Z,28.45
2017-12-01T21:29:22.353Z,26.08
2017-12-01T21:31:50.694Z,24.37
2017-12-01T21:34:19.071Z,23.25
2017-12-01T21:36:47.419Z,25.67
2017-12-01T21:39:15.773Z,22.80
2017-12-01T21:41:44.113Z,26.85
2017-12-01T21:44:12.463Z,28.35
2017-12-01T21:46:40.854Z,27.85
2017-12-01T21:49:09.215Z,30.52
2017-12-01T21:51:37.562Z,27.48
2017-12-01T21:54:05.965Z,31.02
2017-12-01T21:56:34.308Z,26.52
2017-12-01T21:59:02.662Z,27.58
2017-12-01T22:01:31.018Z,29.05
2017-12-01T22:03:59.370Z,29.75
2017-12-01T22:06:27.743Z,30.50
2017-12-01T22:08:56.091Z,31.02
2017-12-01T22:11:24.450Z,30.05
2017-12-01T22:13:52.809Z,28.65
2017-12-01T22:16:21.152Z,29.35
2017-12-01T22:18:49.564Z,30.73
2017-12-01T22:21:17.919Z,29.40
2017-12-01T22:23:46.269Z,30.83
2017-12-01T22:26:14.610Z,30.92
2017-12-01T22:28:42.967Z,33.10
2017-12-01T22:31:11.354Z,30.60
2017-12-01T22:33:39.694Z,28.70
2017-12-01T22:36:08.044Z,30.02
2017-12-01T22:38:36.386Z,33.53
2017-12-01T22:41:04.730Z,30.17
2017-12-01T22:43:33.114Z,32.90
2017-12-01T22:46:01.463Z,31.33
2017-12-01T22:48:29.817Z,31.25
2017-12-01T22:50:58.183Z,33.05
2017-12-01T22:53:26.538Z,31.37
2017-12-01T22:55:54.890Z,31.00
2017-12-01T22:58:23.271Z,31.45
2017-12-01T23:00:51.656Z,31.20
2017-12-01T23:03:19.986Z,28.70
2017-12-01T23:05:48.374Z,26.60
2017-12-01T23:08:16.726Z,29.48
2017-12-01T23:10:45.074Z,28.30
2017-12-01T23:13:13.470Z,27.25
2017-12-01T23:15:41.807Z,28.05
2017-12-01T23:18:10.151Z,28.60
2017-12-01T23:20:38.507Z,27.10
2017-12-01T23:23:06.846Z,27.05
2017-12-01T23:25:35.190Z,26.95
2017-12-01T23:28:03.562Z,26.67
2017-12-01T23:30:31.922Z,26.35
2017-12-01T23:33:00.263Z,27.20
2017-12-01T23:35:28.610Z,26.37
2017-12-01T23:37:56.954Z,29.75
2017-12-01T23:40:25.322Z,29.90
2017-12-01T23:42:53.690Z,28.38
2017-12-01T23:45:22.045Z,29.73
2017-12-01T23:47:50.394Z,28.55
2017-12-01T23:50:18.747Z,25.88
2017-12-01T23:52:47.095Z,26.87
2017-12-01T23:55:15.471Z,27.60
2017-12-01T23:57:43.818Z,25.25
